首页
METAR-TAF:

METAR-TAF

机场 :

本-古里安国际机场

特拉维夫 / 本·古里安, 以色列

纬度: 32-00N, 经度: 034-54E, 海拔: 40米

当前天气观测

该预报发布于11分钟前的19:20 UTC
风速5节,风向南转南东
温度 18°C
湿度 77%
气压 1014 hPa
能见度10公里或以上
少量云层高于4000英尺

METAR: LLBG 151920Z 16005KT 9999 FEW040 18/14 Q1014 NOSIG

时间: 21:31 (19:31 UTC)

预报

该预报发布于2小时和17分钟前的17:14 UTC
预报有效从15日的 18点(UTC)到 16日的 18点(UTC)
风速5节,风向
能见度10公里或以上
散云层高于3000英尺
几率 40%
从 15日的 22点(UTC)到 16日的 07点(UTC)
风速12节,风向西南,有时为22节阵风
能見度: 5000
少量云层高于2000英尺, 积雨云.
多云层高于2500英尺
雷暴, 雨
从 16日的 0700点(UTC)
风速12节,风向西南
能见度10公里或以上
散云层高于3000英尺
几率 40%
从 16日的 07点(UTC)到 16日的 13点(UTC)
风速15节,风向西南,有时为25节阵风
能見度: 5000
少量云层高于2500英尺, 积雨云.
多云层高于3000英尺
雷暴, 雨
成为
从 16日的 14点(UTC)到 16日的 17点(UTC)
风速6节,风向南转南东

TAF: LLBG 151714Z 1518/1618 17005KT 9999 SCT030 PROB40 1522/1607 22012G22KT 5000 TSRA FEW020CB BKN025 FM160700 22012KT 9999 SCT030 PROB40 1607/1613 22015G25KT 5000 TSRA FEW025CB BKN030 BECMG 1614/1617 16006KT TX21/1612Z TN15/1604Z

超过4000个机场的气象观测和天气预报(METAR&TAF报告)。

可查询的气象台以黄色和红色小点在地图上表示。

将鼠标移到小点上方,可查看气象台名称。

然后点击查看天气观测和预报。

如需切换地图:点击带黑十字的绿色按钮放大地图;点击带横线的绿色按钮缩小地图;或者点击绿色箭头查看邻近地区的地图。


METAR-TAF: